| time (UTC) | temp C | wind direction | speed KPH | gust KPH | rain 1hr cm | rain 24hr cm | rain mn cm | humidity % | barometer mb |
| 20260506185118 | 22 | 0 | 6.4 | 14.5 | 0.00 | 0.00 | 0.00 | 37 | 1023.3 |
| 20260506184614 | 22 | 296 | 8.0 | 17.7 | 0.00 | 0.00 | 0.00 | 30 | 1023.3 |
| 20260506184114 | 23 | 338 | 8.0 | 19.3 | 0.00 | 0.00 | 0.00 | 31 | 1023.3 |
| 20260506183612 | 23 | 325 | 6.4 | 19.3 | 0.00 | 0.00 | 0.00 | 31 | 1023.4 |
| 20260506183114 | 24 | 27 | 9.7 | 22.5 | 0.00 | 0.00 | 0.00 | 38 | 1023.4 |
| 20260506182905 | 24 | 142 | 12.9 | 22.5 | 0.00 | 0.00 | 0.00 | 38 | 1023.4 |
| 20260506182409 | 23 | 39 | 11.3 | 22.5 | 0.00 | 0.00 | 0.00 | 44 | 1023.3 |
| 20260506181612 | 22 | 25 | 8.0 | 19.3 | 0.00 | 0.00 | 0.00 | 44 | 1023.3 |
| 20260506181112 | 24 | 63 | 8.0 | 19.3 | 0.00 | 0.00 | 0.00 | 43 | 1023.3 |
| 20260506180612 | 22 | 23 | 9.7 | 19.3 | 0.00 | 0.00 | 0.00 | 44 | 1023.4 |
| 20260506180111 | 23 | 42 | 8.0 | 19.3 | 0.00 | 0.00 | 0.00 | 49 | 1023.5 |
| 20260506175606 | 22 | 5 | 6.4 | 17.7 | 0.00 | 0.00 | 0.00 | 46 | 1023.4 |
| 20260506175106 | 22 | 5 | 8.0 | 14.5 | 0.00 | 0.00 | 0.00 | 47 | 1023.4 |
| 20260506174605 | 21 | 12 | 8.0 | 16.1 | 0.00 | 0.00 | 0.00 | 49 | 1023.4 |
| 20260506174102 | 21 | 345 | 9.7 | 22.5 | 0.00 | 0.00 | 0.00 | 47 | 1023.4 |
| 20260506173602 | 21 | 38 | 11.3 | 22.5 | 0.00 | 0.00 | 0.00 | 48 | 1023.4 |
| 20260506173059 | 21 | 0 | 9.7 | 17.7 | 0.00 | 0.00 | 0.00 | 47 | 1023.4 |
| 20260506172844 | 20 | 5 | 8.0 | 17.7 | 0.00 | 0.00 | 0.00 | 53 | 1023.4 |
| 20260506172343 | 19 | 329 | 8.0 | 16.1 | 0.00 | 0.00 | 0.00 | 53 | 1023.4 |
| 20260506171541 | 18 | 340 | 6.4 | 16.1 | 0.00 | 0.00 | 0.00 | 49 | 1023.3 |
| 20260506171333 | 18 | 329 | 4.8 | 12.9 | 0.00 | 0.00 | 0.00 | 52 | 1023.3 |
| 20260506170540 | 18 | 19 | 3.2 | 9.7 | 0.00 | 0.00 | 0.00 | 56 | 1023.3 |
| 20260506170037 | 18 | 340 | 4.8 | 9.7 | 0.00 | 0.00 | 0.00 | 51 | 1023.4 |
| 20260506165536 | 17 | 61 | 3.2 | 9.7 | 0.00 | 0.00 | 0.00 | 55 | 1023.3 |
| 20260506165032 | 17 | 89 | 3.2 | 9.7 | 0.00 | 0.00 | 0.00 | 55 | 1023.4 |
| 20260506164531 | 17 | 9 | 4.8 | 9.7 | 0.00 | 0.00 | 0.00 | 65 | 1023.4 |
| 20260506164033 | 16 | 106 | 4.8 | 9.7 | 0.00 | 0.00 | 0.00 | 60 | 1023.4 |
| 20260506163531 | 16 | 48 | 6.4 | 12.9 | 0.00 | 0.00 | 0.00 | 65 | 1023.4 |
| 20260506163030 | 15 | 117 | 6.4 | 12.9 | 0.00 | 0.00 | 0.00 | 65 | 1023.4 |
| 20260506162530 | 15 | 128 | 6.4 | 11.3 | 0.00 | 0.00 | 0.00 | 62 | 1023.4 |
| 20260506162030 | 15 | 157 | 6.4 | 11.3 | 0.00 | 0.00 | 0.00 | 65 | 1023.3 |
| 20260506161530 | 14 | 163 | 6.4 | 14.5 | 0.00 | 0.00 | 0.00 | 65 | 1023.4 |
| 20260506161030 | 14 | 123 | 8.0 | 16.1 | 0.00 | 0.00 | 0.00 | 62 | 1023.4 |
| 20260506160530 | 13 | 142 | 9.7 | 16.1 | 0.00 | 0.00 | 0.00 | 66 | 1023.4 |
| 20260506160029 | 13 | 152 | 9.7 | 16.1 | 0.00 | 0.00 | 0.00 | 65 | 1023.3 |
| 20260506155820 | 13 | 141 | 8.0 | 12.9 | 0.00 | 0.00 | 0.00 | 67 | 1023.4 |
| 20260506155030 | 13 | 141 | 6.4 | 12.9 | 0.00 | 0.00 | 0.00 | 67 | 1023.4 |
| 20260506154530 | 12 | 144 | 6.4 | 14.5 | 0.00 | 0.00 | 0.00 | 69 | 1023.4 |
| 20260506154029 | 12 | 198 | 8.0 | 14.5 | 0.00 | 0.00 | 0.00 | 70 | 1023.3 |
| 20260506153620 | 12 | 155 | 8.0 | 14.5 | 0.00 | 0.00 | 0.00 | 70 | 1023.3 |
| 20260506153606 | 12 | 106 | 8.0 | 14.5 | 0.00 | 0.00 | 0.00 | 68 | 1023.3 |
| 20260506152529 | 12 | 139 | 6.4 | 14.5 | 0.00 | 0.00 | 0.00 | 69 | 1023.1 |
| 20260506152030 | 11 | 146 | 6.4 | 14.5 | 0.00 | 0.00 | 0.00 | 69 | 1023.3 |
| 20260506151530 | 11 | 161 | 8.0 | 14.5 | 0.00 | 0.00 | 0.00 | 70 | 1023.3 |
| 20260506151029 | 11 | 192 | 8.0 | 14.5 | 0.00 | 0.00 | 0.00 | 68 | 1023.3 |
| 20260506150531 | 11 | 150 | 6.4 | 11.3 | 0.00 | 0.00 | 0.00 | 69 | 1023.1 |
| 20260506150032 | 11 | 192 | 8.0 | 12.9 | 0.00 | 0.00 | 0.00 | 69 | 1023.1 |
| 20260506145530 | 11 | 165 | 6.4 | 12.9 | 0.00 | 0.00 | 0.00 | 73 | 1023.1 |
| 20260506145030 | 11 | 165 | 6.4 | 11.3 | 0.00 | 0.00 | 0.00 | 72 | 1023.1 |
| 20260506144818 | 10 | 168 | 6.4 | 11.3 | 0.00 | 0.00 | 0.00 | 71 | 1023.0 |
| 20260506144030 | 10 | 184 | 6.4 | 11.3 | 0.00 | 0.00 | 0.00 | 73 | 1023.0 |
| 20260506143529 | 10 | 168 | 4.8 | 9.7 | 0.00 | 0.00 | 0.00 | 74 | 1023.0 |
| 20260506143030 | 9 | 306 | 6.4 | 9.7 | 0.00 | 0.03 | 0.00 | 76 | 1023.0 |
| 20260506142530 | 9 | 162 | 4.8 | 9.7 | 0.00 | 0.03 | 0.00 | 77 | 1022.9 |
| 20260506142029 | 8 | 227 | 4.8 | 8.0 | 0.00 | 0.03 | 0.00 | 78 | 1022.8 |
| 20260506141529 | 8 | 194 | 3.2 | 8.0 | 0.00 | 0.03 | 0.00 | 80 | 1022.7 |
| 20260506141331 | 8 | 190 | 1.6 | 4.8 | 0.00 | 0.03 | 0.00 | 82 | 1022.7 |
| 20260506140529 | 7 | 265 | 0.0 | 3.2 | 0.00 | 0.03 | 0.00 | 84 | 1022.4 |
| 20260506140029 | 7 | 337 | 1.6 | 3.2 | 0.00 | 0.03 | 0.00 | 84 | 1022.4 |
| 20260506135530 | 8 | 48 | 1.6 | 4.8 | 0.00 | 0.03 | 0.00 | 84 | 1022.3 |
| 20260506135408 | 8 | 177 | 3.2 | 8.0 | 0.00 | 0.03 | 0.00 | 81 | 1022.2 |
| 20260506135403 | 8 | 48 | 1.6 | 8.0 | 0.00 | 0.03 | 0.00 | 83 | 1022.3 |
| 20260506134327 | 7 | 178 | 3.2 | 6.4 | 0.00 | 0.03 | 0.00 | 81 | 1022.0 |
| 20260506133529 | 7 | 246 | 4.8 | 6.4 | 0.00 | 0.03 | 0.00 | 81 | 1022.0 |
| 20260506133028 | 7 | 237 | 4.8 | 8.0 | 0.00 | 0.03 | 0.00 | 81 | 1021.9 |
| 20260506132527 | 7 | 239 | 4.8 | 8.0 | 0.00 | 0.03 | 0.00 | 82 | 1021.9 |
| 20260506132029 | 7 | 240 | 4.8 | 8.0 | 0.00 | 0.03 | 0.00 | 82 | 1021.9 |
| 20260506131530 | 7 | 217 | 3.2 | 8.0 | 0.00 | 0.03 | 0.00 | 81 | 1021.6 |
| 20260506131028 | 7 | 184 | 1.6 | 4.8 | 0.00 | 0.03 | 0.00 | 82 | 1021.6 |
| 20260506130528 | 7 | 187 | 3.2 | 4.8 | 0.00 | 0.03 | 0.00 | 81 | 1021.5 |
| 20260506130025 | 7 | 187 | 4.8 | 6.4 | 0.00 | 0.03 | 0.00 | 81 | 1021.4 |
| 20260506125526 | 7 | 261 | 3.2 | 6.4 | 0.00 | 0.03 | 0.00 | 82 | 1021.3 |
| 20260506125320 | 7 | 200 | 1.6 | 4.8 | 0.00 | 0.03 | 0.00 | 82 | 1021.2 |
| 20260506124524 | 7 | 200 | 3.2 | 6.4 | 0.00 | 0.03 | 0.00 | 80 | 1021.2 |
| 20260506124329 | 7 | 200 | 3.2 | 6.4 | 0.00 | 0.03 | 0.00 | 80 | 1021.2 |
| 20260506123524 | 7 | 185 | 1.6 | 4.8 | 0.00 | 0.03 | 0.00 | 80 | 1021.2 |
| 20260506123024 | 8 | 152 | 1.6 | 3.2 | 0.00 | 0.05 | 0.00 | 79 | 1021.2 |
| 20260506122523 | 7 | 152 | 0.0 | 3.2 | 0.00 | 0.05 | 0.00 | 80 | 1021.1 |
| 20260506122021 | 8 | 152 | 0.0 | 3.2 | 0.00 | 0.05 | 0.00 | 79 | 1020.9 |
| 20260506121555 | 8 | 152 | 0.0 | 4.8 | 0.00 | 0.05 | 0.00 | 77 | 1020.8 |
| 20260506121544 | 8 | 152 | 0.0 | 1.6 | 0.00 | 0.05 | 0.00 | 79 | 1020.9 |
| 20260506120522 | 8 | 152 | 1.6 | 4.8 | 0.00 | 0.05 | 0.00 | 76 | 1020.7 |
| 20260506120014 | 8 | 190 | 3.2 | 4.8 | 0.00 | 0.05 | 0.00 | 75 | 1020.6 |
| 20260506115851 | 9 | 190 | 3.2 | 6.4 | 0.00 | 0.05 | 0.00 | 75 | 1020.5 |
| 20260506115544 | 9 | 190 | 3.2 | 6.4 | 0.00 | 0.05 | 0.00 | 74 | 1020.6 |
| 20260506114813 | 9 | 155 | 3.2 | 6.4 | 0.00 | 0.05 | 0.00 | 76 | 1020.5 |
| 20260506114015 | 8 | 175 | 3.2 | 6.4 | 0.00 | 0.05 | 0.00 | 78 | 1020.2 |
| 20260506113515 | 8 | 205 | 1.6 | 6.4 | 0.00 | 0.05 | 0.00 | 80 | 1020.2 |
| 20260506113014 | 8 | 183 | 3.2 | 6.4 | 0.00 | 0.05 | 0.00 | 79 | 1020.2 |
| 20260506112514 | 9 | 183 | 3.2 | 6.4 | 0.00 | 0.05 | 0.00 | 76 | 1020.1 |
| 20260506112011 | 8 | 211 | 3.2 | 6.4 | 0.00 | 0.05 | 0.00 | 77 | 1020.1 |
| 20260506111511 | 8 | 175 | 4.8 | 8.0 | 0.00 | 0.05 | 0.00 | 77 | 1020.0 |
| 20260506111010 | 8 | 215 | 1.6 | 8.0 | 0.00 | 0.05 | 0.00 | 80 | 1020.0 |
| 20260506110511 | 7 | 222 | 0.0 | 1.6 | 0.00 | 0.05 | 0.00 | 81 | 1019.9 |
| 20260506110010 | 8 | 222 | 3.2 | 8.0 | 0.00 | 0.05 | 0.00 | 79 | 1020.0 |
| 20260506105803 | 8 | 222 | 6.4 | 8.0 | 0.00 | 0.05 | 0.00 | 78 | 1019.8 |
| 20260506105314 | 8 | 241 | 6.4 | 8.0 | 0.00 | 0.05 | 0.00 | 79 | 1019.8 |
| 20260506104508 | 8 | 238 | 6.4 | 9.7 | 0.00 | 0.05 | 0.00 | 80 | 1019.8 |
| 20260506104310 | 8 | 252 | 4.8 | 9.7 | 0.00 | 0.05 | 0.00 | 79 | 1019.7 |
| 20260506103508 | 8 | 246 | 6.4 | 9.7 | 0.00 | 0.08 | 0.00 | 78 | 1019.7 |
| 20260506103303 | 8 | 190 | 8.0 | 11.3 | 0.00 | 0.08 | 0.00 | 77 | 1019.6 |
| 20260506102510 | 8 | 171 | 8.0 | 11.3 | 0.00 | 0.08 | 0.00 | 78 | 1019.7 |
| 20260506102008 | 8 | 171 | 6.4 | 11.3 | 0.00 | 0.08 | 0.00 | 78 | 1019.7 |
| 20260506101507 | 8 | 173 | 3.2 | 11.3 | 0.00 | 0.08 | 0.00 | 78 | 1019.4 |
| 20260506101304 | 8 | 175 | 1.6 | 6.4 | 0.00 | 0.08 | 0.00 | 77 | 1019.4 |
| 20260506100508 | 9 | 151 | 3.2 | 4.8 | 0.00 | 0.08 | 0.00 | 75 | 1019.3 |
| 20260506100005 | 9 | 151 | 3.2 | 4.8 | 0.00 | 0.08 | 0.00 | 74 | 1019.2 |
| 20260506095502 | 9 | 151 | 4.8 | 6.4 | 0.00 | 0.08 | 0.00 | 73 | 1019.2 |
| 20260506095259 | 10 | 180 | 3.2 | 6.4 | 0.00 | 0.08 | 0.00 | 73 | 1019.2 |
| 20260506094502 | 9 | 200 | 3.2 | 6.4 | 0.00 | 0.10 | 0.00 | 74 | 1019.2 |
| 20260506094002 | 10 | 217 | 3.2 | 4.8 | 0.00 | 0.10 | 0.00 | 73 | 1019.1 |
| 20260506093754 | 10 | 217 | 1.6 | 4.8 | 0.00 | 0.10 | 0.00 | 73 | 1019.0 |
| 20260506093003 | 10 | 194 | 3.2 | 8.0 | 0.00 | 0.10 | 0.00 | 74 | 1019.1 |
| 20260506092500 | 10 | 162 | 4.8 | 11.3 | 0.00 | 0.10 | 0.00 | 72 | 1019.1 |
| 20260506092056 | 10 | 245 | 6.4 | 12.9 | 0.00 | 0.10 | 0.00 | 72 | 1019.0 |
| 20260506092040 | 10 | 219 | 6.4 | 11.3 | 0.00 | 0.10 | 0.00 | 71 | 1018.9 |
| 20260506091258 | 10 | 257 | 6.4 | 12.9 | 0.00 | 0.10 | 0.00 | 72 | 1019.0 |
| 20260506090502 | 10 | 259 | 8.0 | 12.9 | 0.00 | 0.10 | 0.00 | 73 | 1018.9 |
| 20260506090002 | 10 | 234 | 8.0 | 12.9 | 0.00 | 0.10 | 0.00 | 74 | 1019.0 |
| 20260506085503 | 9 | 237 | 8.0 | 12.9 | 0.00 | 0.10 | 0.00 | 74 | 1018.7 |
| 20260506085002 | 9 | 243 | 8.0 | 12.9 | 0.00 | 0.10 | 0.00 | 74 | 1018.7 |
| 20260506084501 | 10 | 257 | 8.0 | 12.9 | 0.00 | 0.13 | 0.00 | 74 | 1018.9 |
| 20260506084003 | 10 | 238 | 9.7 | 12.9 | 0.00 | 0.13 | 0.00 | 73 | 1018.7 |
| 20260506083502 | 10 | 254 | 8.0 | 12.9 | 0.00 | 0.13 | 0.00 | 73 | 1018.9 |
| 20260506083002 | 10 | 208 | 8.0 | 12.9 | 0.00 | 0.13 | 0.00 | 73 | 1018.7 |
| 20260506082501 | 10 | 250 | 6.4 | 12.9 | 0.00 | 0.13 | 0.00 | 73 | 1018.9 |
| 20260506082002 | 10 | 226 | 6.4 | 9.7 | 0.00 | 0.13 | 0.00 | 73 | 1018.9 |
| 20260506081556 | 10 | 211 | 4.8 | 11.3 | 0.00 | 0.13 | 0.00 | 72 | 1018.7 |
| 20260506081541 | 10 | 255 | 6.4 | 11.3 | 0.00 | 0.13 | 0.00 | 72 | 1018.9 |
| 20260506080503 | 10 | 217 | 4.8 | 9.7 | 0.00 | 0.15 | 0.00 | 71 | 1018.7 |
| 20260506073503 | 11 | 107 | 4.8 | 6.4 | 0.00 | 0.15 | 0.00 | 69 | 1018.5 |
| 20260506073003 | 11 | 123 | 3.2 | 6.4 | 0.00 | 0.15 | 0.00 | 70 | 1018.4 |
| 20260506072600 | 10 | 135 | 1.6 | 4.8 | 0.00 | 0.18 | 0.00 | 74 | 1018.3 |
| 20260506072540 | 11 | 141 | 3.2 | 6.4 | 0.00 | 0.15 | 0.00 | 72 | 1018.4 |
| 20260506071752 | 10 | 136 | 1.6 | 4.8 | 0.00 | 0.18 | 0.00 | 76 | 1018.4 |
| 20260506071002 | 10 | 135 | 1.6 | 4.8 | 0.00 | 0.18 | 0.00 | 74 | 1018.3 |
| 20260506070502 | 11 | 136 | 0.0 | 3.2 | 0.00 | 0.18 | 0.00 | 73 | 1018.3 |
| 20260506062448 | 12 | 230 | 9.7 | 22.5 | 0.00 | 0.20 | 0.18 | 67 | 1017.9 |
| 20260506061948 | 12 | 210 | 11.3 | 17.7 | 0.00 | 0.20 | 0.18 | 67 | 1018.1 |
| 20260506061448 | 12 | 223 | 11.3 | 17.7 | 0.00 | 0.20 | 0.18 | 67 | 1017.8 |
| 20260506060947 | 12 | 266 | 11.3 | 16.1 | 0.00 | 0.20 | 0.18 | 66 | 1017.6 |
| 20260506060450 | 12 | 229 | 9.7 | 14.5 | 0.00 | 0.20 | 0.18 | 66 | 1017.5 |
| 20260506050947 | 13 | 169 | 6.4 | 17.7 | 0.00 | 0.20 | 0.18 | 65 | 1016.7 |
| 20260506050731 | 13 | 140 | 4.8 | 11.3 | 0.00 | 0.20 | 0.18 | 65 | 1016.6 |
| 20260506044944 | 13 | 159 | 8.0 | 12.9 | 0.00 | 0.23 | 0.18 | 62 | 1016.6 |
| 20260506044447 | 13 | 174 | 8.0 | 12.9 | 0.00 | 0.23 | 0.18 | 62 | 1016.7 |
| 20260506044238 | 13 | 160 | 11.3 | 19.3 | 0.00 | 0.23 | 0.18 | 62 | 1016.6 |
| 20260506043441 | 13 | 125 | 9.7 | 19.3 | 0.00 | 0.23 | 0.18 | 62 | 1016.3 |
| 20260506042940 | 13 | 153 | 6.4 | 11.3 | 0.00 | 0.23 | 0.18 | 62 | 1016.3 |
| 20260506042441 | 14 | 163 | 6.4 | 11.3 | 0.00 | 0.23 | 0.18 | 60 | 1016.2 |
| 20260506041940 | 14 | 180 | 6.4 | 11.3 | 0.00 | 0.23 | 0.18 | 59 | 1016.2 |
| 20260506041726 | 14 | 165 | 3.2 | 11.3 | 0.00 | 0.23 | 0.18 | 58 | 1016.1 |
| 20260506040941 | 14 | 182 | 3.2 | 9.7 | 0.00 | 0.23 | 0.18 | 57 | 1016.0 |
| 20260506040442 | 14 | 227 | 6.4 | 14.5 | 0.00 | 0.23 | 0.18 | 58 | 1016.0 |
| 20260506035941 | 14 | 173 | 8.0 | 16.1 | 0.00 | 0.23 | 0.18 | 59 | 1016.0 |
| 20260506035437 | 15 | 200 | 9.7 | 19.3 | 0.00 | 0.23 | 0.18 | 60 | 1015.7 |
| 20260506034936 | 15 | 223 | 8.0 | 19.3 | 0.00 | 0.23 | 0.18 | 59 | 1015.6 |
| 20260506034435 | 15 | 220 | 6.4 | 12.9 | 0.00 | 0.25 | 0.18 | 60 | 1015.5 |
| 20260506033935 | 15 | 229 | 6.4 | 20.9 | 0.00 | 0.25 | 0.18 | 59 | 1015.5 |
| 20260506033434 | 15 | 230 | 6.4 | 20.9 | 0.00 | 0.25 | 0.18 | 58 | 1015.5 |
| 20260506032935 | 15 | 191 | 6.4 | 14.5 | 0.00 | 0.25 | 0.18 | 57 | 1015.4 |
| 20260506032432 | 15 | 215 | 8.0 | 16.1 | 0.00 | 0.25 | 0.18 | 55 | 1015.4 |
| 20260506031931 | 15 | 240 | 8.0 | 16.1 | 0.00 | 0.25 | 0.18 | 54 | 1015.3 |
| 20260506031535 | 15 | 234 | 8.0 | 14.5 | 0.00 | 0.25 | 0.18 | 55 | 1015.3 |
| 20260506031517 | 15 | 232 | 9.7 | 16.1 | 0.00 | 0.25 | 0.18 | 54 | 1015.3 |
| 20260506030430 | 15 | 267 | 6.4 | 11.3 | 0.00 | 0.25 | 0.18 | 56 | 1015.2 |
| 20260506025933 | 15 | 250 | 6.4 | 9.7 | 0.00 | 0.25 | 0.18 | 56 | 1015.0 |
| 20260506025429 | 15 | 229 | 6.4 | 11.3 | 0.00 | 0.25 | 0.18 | 57 | 1015.2 |
| 20260506024929 | 15 | 217 | 8.0 | 12.9 | 0.00 | 0.25 | 0.18 | 55 | 1015.2 |
| 20260506024722 | 15 | 268 | 8.0 | 12.9 | 0.00 | 0.25 | 0.18 | 55 | 1015.0 |
| 20260506023922 | 15 | 285 | 6.4 | 12.9 | 0.00 | 0.25 | 0.18 | 57 | 1014.9 |
| 20260506023415 | 15 | 230 | 4.8 | 9.7 | 0.00 | 0.25 | 0.18 | 57 | 1014.9 |
| 20260506022910 | 15 | 252 | 6.4 | 11.3 | 0.00 | 0.28 | 0.18 | 56 | 1014.8 |
| 20260506022409 | 16 | 224 | 6.4 | 11.3 | 0.00 | 0.28 | 0.18 | 55 | 1014.7 |
| 20260506021910 | 16 | 240 | 6.4 | 11.3 | 0.00 | 0.28 | 0.18 | 54 | 1014.7 |
| 20260506021410 | 16 | 225 | 6.4 | 11.3 | 0.00 | 0.28 | 0.18 | 53 | 1014.6 |
| 20260506020909 | 16 | 194 | 8.0 | 14.5 | 0.00 | 0.28 | 0.18 | 51 | 1014.6 |
| 20260506020704 | 17 | 182 | 8.0 | 16.1 | 0.00 | 0.28 | 0.18 | 50 | 1014.5 |
| 20260506015908 | 17 | 186 | 8.0 | 16.1 | 0.00 | 0.28 | 0.18 | 50 | 1014.5 |
| 20260506015408 | 17 | 178 | 9.7 | 16.1 | 0.00 | 0.28 | 0.18 | 50 | 1014.5 |
| 20260506015017 | 17 | 108 | 9.7 | 19.3 | 0.00 | 0.30 | 0.18 | 50 | 1014.4 |
| 20260506014956 | 17 | 202 | 9.7 | 19.3 | 0.00 | 0.28 | 0.18 | 51 | 1014.5 |
| 20260506013905 | 17 | 163 | 8.0 | 16.1 | 0.00 | 0.30 | 0.18 | 50 | 1014.4 |
| 20260506013405 | 17 | 173 | 6.4 | 14.5 | 0.00 | 0.30 | 0.18 | 50 | 1014.5 |
| 20260506012905 | 17 | 169 | 8.0 | 14.5 | 0.00 | 0.30 | 0.18 | 50 | 1014.5 |
| 20260506012655 | 17 | 154 | 9.7 | 14.5 | 0.00 | 0.30 | 0.18 | 48 | 1014.5 |
| 20260506011902 | 17 | 182 | 9.7 | 16.1 | 0.00 | 0.30 | 0.18 | 49 | 1014.4 |
| 20260506011403 | 17 | 169 | 9.7 | 16.1 | 0.00 | 0.30 | 0.18 | 48 | 1014.5 |
| 20260506010902 | 18 | 192 | 8.0 | 17.7 | 0.00 | 0.30 | 0.18 | 48 | 1014.5 |
| 20260506010401 | 17 | 171 | 9.7 | 17.7 | 0.00 | 0.30 | 0.18 | 49 | 1014.5 |
| 20260506005902 | 17 | 167 | 9.7 | 16.1 | 0.00 | 0.30 | 0.18 | 49 | 1014.4 |
| 20260506005401 | 17 | 194 | 9.7 | 17.7 | 0.00 | 0.33 | 0.18 | 50 | 1014.4 |
| 20260506004901 | 18 | 147 | 9.7 | 17.7 | 0.00 | 0.33 | 0.18 | 49 | 1014.4 |
| 20260506004401 | 18 | 167 | 11.3 | 17.7 | 0.00 | 0.33 | 0.18 | 49 | 1014.4 |
| 20260506003901 | 18 | 163 | 9.7 | 16.1 | 0.00 | 0.33 | 0.18 | 51 | 1014.5 |
| 20260506003401 | 18 | 139 | 9.7 | 20.9 | 0.00 | 0.33 | 0.18 | 52 | 1014.5 |
| 20260506002901 | 18 | 149 | 11.3 | 20.9 | 0.00 | 0.33 | 0.18 | 48 | 1014.5 |
| 20260506002403 | 18 | 140 | 9.7 | 19.3 | 0.00 | 0.33 | 0.18 | 47 | 1014.4 |
| 20260506001954 | 18 | 103 | 6.4 | 19.3 | 0.00 | 0.33 | 0.18 | 47 | 1014.5 |
| 20260506001938 | 18 | 104 | 9.7 | 19.3 | 0.00 | 0.33 | 0.18 | 50 | 1014.4 |
| 20260506001134 | 18 | 188 | 6.4 | 11.3 | 0.00 | 0.33 | 0.18 | 47 | 1014.5 |
| 20260506000401 | 18 | 146 | 8.0 | 14.5 | 0.00 | 0.33 | 0.18 | 46 | 1014.5 |
| 20260506000152 | 18 | 109 | 9.7 | 16.1 | 0.00 | 0.33 | 0.18 | 49 | 1014.5 |
| 20260505235401 | 18 | 115 | 8.0 | 16.1 | 0.00 | 0.33 | 0.18 | 48 | 1014.6 |
| 20260505234902 | 18 | 134 | 4.8 | 12.9 | 0.00 | 0.33 | 0.18 | 50 | 1014.6 |
| 20260505234402 | 18 | 178 | 8.0 | 14.5 | 0.00 | 0.33 | 0.18 | 51 | 1014.5 |
| 20260505234158 | 18 | 101 | 6.4 | 14.5 | 0.00 | 0.36 | 0.18 | 50 | 1014.5 |
| 20260505233403 | 20 | 67 | 6.4 | 12.9 | 0.00 | 0.36 | 0.18 | 49 | 1014.5 |
| 20260505232850 | 20 | 44 | 8.0 | 17.7 | 0.00 | 0.36 | 0.18 | 54 | 1014.6 |
| 20260505232344 | 19 | 92 | 4.8 | 17.7 | 0.00 | 0.36 | 0.18 | 49 | 1014.7 |
| 20260505231838 | 19 | 303 | 4.8 | 12.9 | 0.00 | 0.36 | 0.18 | 49 | 1014.8 |
| 20260505231331 | 17 | 10 | 4.8 | 12.9 | 0.00 | 0.36 | 0.18 | 48 | 1014.7 |
| 20260505230829 | 18 | 213 | 4.8 | 12.9 | 0.00 | 0.36 | 0.18 | 50 | 1014.7 |
| 20260505230320 | 18 | 229 | 4.8 | 12.9 | 0.00 | 0.36 | 0.18 | 48 | 1014.8 |
| 20260505225814 | 18 | 147 | 8.0 | 14.5 | 0.00 | 0.36 | 0.18 | 48 | 1014.9 |
| 20260505225308 | 18 | 155 | 6.4 | 14.5 | 0.00 | 0.36 | 0.18 | 52 | 1014.9 |
| 20260505225100 | 19 | 101 | 3.2 | 11.3 | 0.00 | 0.36 | 0.18 | 52 | 1015.0 |
| 20260505224600 | 18 | 333 | 1.6 | 6.4 | 0.00 | 0.36 | 0.18 | 57 | 1015.0 |
| 20260505224059 | 18 | 249 | 3.2 | 8.0 | 0.00 | 0.36 | 0.18 | 49 | 1015.2 |
| 20260505223307 | 18 | 339 | 4.8 | 9.7 | 0.00 | 0.36 | 0.18 | 48 | 1015.0 |
| 20260505222808 | 20 | 355 | 6.4 | 11.3 | 0.00 | 0.36 | 0.18 | 44 | 1015.2 |
| 20260505222603 | 21 | 59 | 6.4 | 11.3 | 0.00 | 0.36 | 0.18 | 54 | 1015.3 |
| 20260505222059 | 20 | 67 | 4.8 | 9.7 | 0.00 | 0.36 | 0.18 | 54 | 1015.3 |
| 20260505221305 | 20 | 5 | 6.4 | 12.9 | 0.00 | 0.36 | 0.18 | 55 | 1015.3 |
| 20260505221102 | 18 | 93 | 6.4 | 12.9 | 0.00 | 0.36 | 0.18 | 54 | 1015.3 |
| 20260505220302 | 17 | 155 | 8.0 | 14.5 | 0.00 | 0.36 | 0.18 | 55 | 1015.4 |
| 20260505215803 | 17 | 157 | 8.0 | 16.1 | 0.00 | 0.36 | 0.18 | 54 | 1015.4 |
| 20260505215600 | 17 | 132 | 4.8 | 16.1 | 0.00 | 0.36 | 0.18 | 61 | 1015.4 |
| 20260505214804 | 17 | 245 | 3.2 | 8.0 | 0.00 | 0.36 | 0.18 | 62 | 1015.5 |
| 20260505214302 | 17 | 313 | 6.4 | 14.5 | 0.00 | 0.36 | 0.18 | 53 | 1015.6 |
| 20260505213846 | 16 | 105 | 6.4 | 16.1 | 0.00 | 0.38 | 0.18 | 62 | 1015.7 |
| 20260505213834 | 19 | 13 | 8.0 | 16.1 | 0.00 | 0.36 | 0.18 | 60 | 1015.7 |
| 20260505212851 | 16 | 189 | 6.4 | 19.3 | 0.00 | 0.38 | 0.18 | 57 | 1015.9 |
| 20260505212836 | 16 | 85 | 6.4 | 19.3 | 0.00 | 0.38 | 0.18 | 62 | 1015.9 |
| 20260505211801 | 16 | 82 | 6.4 | 16.1 | 0.00 | 0.38 | 0.18 | 63 | 1016.0 |
| 20260505211301 | 17 | 134 | 8.0 | 16.1 | 0.00 | 0.38 | 0.18 | 65 | 1016.0 |
| 20260505210801 | 16 | 106 | 8.0 | 14.5 | 0.00 | 0.38 | 0.18 | 65 | 1016.1 |
| 20260505210301 | 17 | 128 | 9.7 | 16.1 | 0.00 | 0.38 | 0.18 | 67 | 1016.1 |
| 20260505205800 | 16 | 103 | 6.4 | 16.1 | 0.00 | 0.38 | 0.18 | 61 | 1016.2 |
| 20260505205305 | 16 | 190 | 4.8 | 11.3 | 0.00 | 0.38 | 0.18 | 65 | 1016.2 |
| 20260505204802 | 16 | 161 | 4.8 | 12.9 | 0.00 | 0.38 | 0.18 | 72 | 1016.2 |
| 20260505204301 | 16 | 182 | 6.4 | 16.1 | 0.00 | 0.38 | 0.18 | 65 | 1016.2 |
| 20260505203802 | 15 | 138 | 8.0 | 16.1 | 0.00 | 0.41 | 0.18 | 62 | 1016.3 |
| 20260505203300 | 14 | 57 | 8.0 | 14.5 | 0.00 | 0.41 | 0.18 | 66 | 1016.2 |
| 20260505202800 | 15 | 180 | 8.0 | 19.3 | 0.00 | 0.41 | 0.18 | 65 | 1016.2 |
| 20260505202301 | 14 | 132 | 9.7 | 19.3 | 0.00 | 0.41 | 0.18 | 70 | 1016.3 |
| 20260505201802 | 15 | 150 | 8.0 | 16.1 | 0.00 | 0.41 | 0.18 | 67 | 1016.2 |
| 20260505201302 | 13 | 139 | 6.4 | 14.5 | 0.00 | 0.41 | 0.18 | 67 | 1016.3 |
| 20260505200801 | 13 | 170 | 8.0 | 16.1 | 0.00 | 0.41 | 0.18 | 70 | 1016.3 |
| 20260505200303 | 13 | 184 | 9.7 | 17.7 | 0.00 | 0.43 | 0.18 | 78 | 1016.6 |
| 20260505195801 | 12 | 199 | 9.7 | 19.3 | 0.00 | 0.43 | 0.18 | 73 | 1016.4 |
| 20260505195557 | 12 | 146 | 8.0 | 19.3 | 0.00 | 0.43 | 0.18 | 76 | 1016.6 |
| 20260505194800 | 12 | 185 | 8.0 | 14.5 | 0.00 | 0.43 | 0.18 | 74 | 1016.6 |
| 20260505194301 | 12 | 163 | 8.0 | 17.7 | 0.00 | 0.43 | 0.18 | 73 | 1016.6 |
| 20260505193802 | 12 | 128 | 9.7 | 17.7 | 0.00 | 0.43 | 0.18 | 72 | 1016.7 |
| 20260505193300 | 12 | 172 | 9.7 | 17.7 | 0.00 | 0.46 | 0.18 | 72 | 1016.6 |
| 20260505192801 | 11 | 182 | 9.7 | 17.7 | 0.00 | 0.46 | 0.18 | 76 | 1016.4 |
| 20260505192305 | 11 | 138 | 8.0 | 17.7 | 0.00 | 0.46 | 0.18 | 78 | 1016.4 |
| 20260505191802 | 11 | 144 | 9.7 | 17.7 | 0.00 | 0.46 | 0.18 | 74 | 1016.6 |
| 20260505191556 | 11 | 127 | 11.3 | 19.3 | 0.00 | 0.46 | 0.18 | 76 | 1016.6 |
| 20260505190802 | 11 | 119 | 11.3 | 19.3 | 0.00 | 0.46 | 0.18 | 76 | 1016.3 |
| 20260505190301 | 11 | 161 | 9.7 | 19.3 | 0.00 | 0.46 | 0.18 | 77 | 1016.4 |
| 20260505185857 | 10 | 150 | 12.9 | 20.9 | 0.00 | 0.46 | 0.18 | 76 | 1016.4 |
| 20260505185840 | 11 | 125 | 11.3 | 20.9 | 0.00 | 0.46 | 0.18 | 80 | 1016.3 |